Time;durP1;ratioP1;P1;durP2;ratioP2;P2;SDS_P1;SDS_P2;PMS_P1;PMS_P2;Temp;Humidity;BMP_temperature;BMP_pressure;BME280_temperature;BME280_humidity;BME280_pressure;Samples;Min_cycle;Max_cycle;Signal;HPM_P1;HPM_P2
2023/09/04 00:00:43;;;;;;;6.77;5.00;;;14.80;99.90;;;;;;5003798;28;20529;-81
2023/09/04 00:03:08;;;;;;;6.10;5.00;;;16.20;99.90;;;;;;5000679;28;20702;-81
2023/09/04 00:05:34;;;;;;;9.93;5.07;;;14.80;99.90;;;;;;5001132;28;20545;-81
2023/09/04 00:08:00;;;;;;;8.80;5.67;;;14.70;99.90;;;;;;5000967;28;20186;-84
2023/09/04 00:10:26;;;;;;;8.43;5.93;;;14.70;99.90;;;;;;5000804;28;20422;-80
2023/09/04 00:12:52;;;;;;;7.50;5.43;;;14.70;99.90;;;;;;5004942;28;20543;-79
2023/09/04 00:15:18;;;;;;;6.23;4.90;;;14.70;99.90;;;;;;5017034;28;20191;-82
2023/09/04 00:17:47;;;;;;;8.10;5.67;;;14.60;99.90;;;;;;5009858;28;20228;-82
2023/09/04 00:20:13;;;;;;;8.33;4.80;;;14.70;99.90;;;;;;5010387;28;20474;-84
2023/09/04 00:22:39;;;;;;;6.33;5.30;;;14.60;99.90;;;;;;5003359;28;20452;-82
2023/09/04 00:25:05;;;;;;;7.40;5.37;;;14.60;99.90;;;;;;5004061;28;20417;-84
2023/09/04 00:27:30;;;;;;;10.20;6.00;;;14.50;99.90;;;;;;5002626;28;20183;-85
2023/09/04 00:29:56;;;;;;;7.50;5.63;;;14.50;99.90;;;;;;5004786;28;20194;-84
2023/09/04 00:32:21;;;;;;;8.00;5.50;;;14.50;99.90;;;;;;5001785;28;20182;-80
2023/09/04 00:34:47;;;;;;;9.83;5.70;;;14.50;99.90;;;;;;5021449;28;20535;-77
2023/09/04 00:37:12;;;;;;;9.50;5.40;;;14.40;99.90;;;;;;5007880;28;20270;-81
2023/09/04 00:39:38;;;;;;;7.50;5.40;;;14.40;99.90;;;;;;5001875;28;20281;-82
2023/09/04 00:42:04;;;;;;;8.00;6.27;;;14.40;99.90;;;;;;4998274;28;20182;-78
2023/09/04 00:44:29;;;;;;;7.17;5.60;;;14.40;99.90;;;;;;5002432;28;20232;-85
2023/09/04 00:46:55;;;;;;;7.80;5.60;;;14.40;99.90;;;;;;5008963;28;20525;-83
2023/09/04 00:49:21;;;;;;;8.23;6.07;;;14.70;99.90;;;;;;4999294;28;20793;-83
2023/09/04 00:51:48;;;;;;;10.97;6.40;;;14.40;99.90;;;;;;4998488;28;20209;-83
2023/09/04 00:54:14;;;;;;;12.73;6.37;;;14.40;99.90;;;;;;4999316;28;20206;-84
2023/09/04 00:56:40;;;;;;;6.80;5.00;;;14.40;99.90;;;;;;4999112;28;20442;-78
2023/09/04 00:59:06;;;;;;;15.47;6.53;;;14.40;99.90;;;;;;5000545;28;20453;-82
2023/09/04 01:01:32;;;;;;;7.30;5.33;;;14.40;99.90;;;;;;5015013;28;20415;-77
2023/09/04 01:03:57;;;;;;;8.07;6.50;;;14.40;99.90;;;;;;5026217;28;20280;-77
2023/09/04 01:06:23;;;;;;;14.27;6.47;;;14.40;99.90;;;;;;5013937;28;20186;-79
2023/09/04 01:08:49;;;;;;;6.43;5.53;;;14.30;99.90;;;;;;5009448;28;20183;-80
2023/09/04 01:11:40;;;;;;;7.07;5.87;;;14.30;99.90;;;;;;5003662;28;20194;-80
2023/09/04 01:14:13;;;;;;;8.60;7.07;;;14.30;99.90;;;;;;5004237;28;20682;-81
2023/09/04 01:16:39;;;;;;;6.77;5.57;;;14.30;99.90;;;;;;5000775;28;20426;-83
2023/09/04 01:19:05;;;;;;;7.90;5.50;;;14.20;99.90;;;;;;5016088;28;20497;-81
2023/09/04 01:21:35;;;;;;;10.03;6.23;;;14.30;99.90;;;;;;5011846;28;20464;-78
2023/09/04 01:24:01;;;;;;;6.50;5.40;;;14.30;99.90;;;;;;5008542;28;20449;-80
2023/09/04 01:27:01;;;;;;;7.90;5.97;;;14.30;99.90;;;;;;5004434;28;20433;-82
2023/09/04 01:29:43;;;;;;;8.40;5.60;;;14.30;99.90;;;;;;4996123;28;20190;-81
2023/09/04 01:32:26;;;;;;;9.40;5.90;;;14.20;99.90;;;;;;5005897;28;20445;-82
2023/09/04 01:34:53;;;;;;;8.60;5.73;;;14.20;99.90;;;;;;4999693;28;20432;-76
2023/09/04 01:37:21;;;;;;;10.30;6.33;;;14.20;99.90;;;;;;5006341;28;20453;-84
2023/09/04 01:39:48;;;;;;;11.03;5.60;;;14.20;99.90;;;;;;4999779;28;20481;-83
2023/09/04 01:42:14;;;;;;;8.23;5.73;;;14.20;99.90;;;;;;5004599;28;20429;-81
2023/09/04 01:44:41;;;;;;;10.07;5.07;;;14.10;99.90;;;;;;5003239;28;20533;-80
2023/09/04 01:47:07;;;;;;;12.20;6.17;;;14.10;99.90;;;;;;4999067;28;20178;-85
2023/09/04 01:49:33;;;;;;;11.83;6.53;;;14.10;99.90;;;;;;4999962;28;20445;-79
2023/09/04 01:52:00;;;;;;;7.93;5.83;;;14.10;99.90;;;;;;4998863;28;20437;-80
2023/09/04 01:54:26;;;;;;;9.40;5.83;;;14.00;99.90;;;;;;5006420;28;20230;-82
2023/09/04 01:56:51;;;;;;;10.53;6.37;;;14.00;99.90;;;;;;5004920;28;20422;-80
2023/09/04 01:59:17;;;;;;;11.77;6.93;;;14.00;99.90;;;;;;5010813;28;21031;-85
2023/09/04 02:01:42;;;;;;;10.73;7.30;;;14.00;99.90;;;;;;5000481;28;20553;-80
2023/09/04 02:04:08;;;;;;;9.87;5.97;;;14.00;99.90;;;;;;4997931;28;20219;-80
2023/09/04 02:06:34;;;;;;;7.83;6.23;;;14.00;99.90;;;;;;5019331;28;20235;-79
2023/09/04 02:08:59;;;;;;;8.93;5.90;;;14.00;99.90;;;;;;5012765;28;20772;-83
2023/09/04 02:11:25;;;;;;;10.03;7.07;;;14.00;99.90;;;;;;4999439;28;20178;-80
2023/09/04 02:13:50;;;;;;;9.43;6.67;;;13.90;99.90;;;;;;5000589;28;20198;-77
2023/09/04 02:16:16;;;;;;;10.73;6.37;;;13.90;99.90;;;;;;4994727;28;20594;-81
2023/09/04 02:18:42;;;;;;;11.63;6.60;;;13.90;99.90;;;;;;4999004;28;20261;-80
2023/09/04 02:21:07;;;;;;;8.77;5.67;;;13.90;99.90;;;;;;4997817;28;20183;-84
2023/09/04 02:23:33;;;;;;;9.90;6.20;;;13.90;99.90;;;;;;4999546;28;20453;-76
2023/09/04 02:25:59;;;;;;;9.13;6.17;;;13.90;99.90;;;;;;5011808;28;20190;-82
2023/09/04 02:28:24;;;;;;;7.97;6.33;;;13.90;99.90;;;;;;5006374;28;20220;-84
2023/09/04 02:30:50;;;;;;;11.87;6.87;;;14.90;99.90;;;;;;5002609;28;20186;-81
2023/09/04 02:33:16;;;;;;;14.30;6.93;;;13.80;99.90;;;;;;5002605;28;20257;-80
2023/09/04 02:35:42;;;;;;;10.20;6.83;;;13.70;99.90;;;;;;4999851;28;21009;-82
2023/09/04 02:38:07;;;;;;;11.87;7.13;;;13.60;99.90;;;;;;5003950;28;20205;-82
2023/09/04 02:40:33;;;;;;;10.43;7.53;;;13.70;99.90;;;;;;4997999;28;20205;-82
2023/09/04 02:42:59;;;;;;;8.30;7.20;;;13.70;99.90;;;;;;5000328;28;20834;-83
2023/09/04 02:45:24;;;;;;;8.90;6.37;;;13.70;99.90;;;;;;5005532;28;20360;-83
2023/09/04 02:47:50;;;;;;;10.10;6.60;;;13.60;99.90;;;;;;4995204;28;20266;-80
2023/09/04 02:50:16;;;;;;;9.17;6.50;;;13.60;99.90;;;;;;5000042;28;20742;-82
2023/09/04 02:52:41;;;;;;;12.17;8.13;;;13.60;99.90;;;;;;4999007;28;20220;-79
2023/09/04 02:55:08;;;;;;;9.90;7.17;;;13.60;99.90;;;;;;5001058;28;20446;-83
2023/09/04 02:57:34;;;;;;;14.23;7.53;;;13.60;99.90;;;;;;4999252;28;20180;-81
2023/09/04 03:00:00;;;;;;;12.47;7.50;;;13.60;99.90;;;;;;4997490;28;20511;-84
2023/09/04 03:02:26;;;;;;;10.80;7.20;;;13.60;99.90;;;;;;4997124;28;20188;-77
2023/09/04 03:04:56;;;;;;;11.30;7.07;;;13.50;99.90;;;;;;5002618;28;20433;-81
2023/09/04 03:07:28;;;;;;;11.43;7.50;;;13.50;99.90;;;;;;4998658;28;20278;-81
2023/09/04 03:09:58;;;;;;;9.33;6.00;;;13.50;99.90;;;;;;4995906;28;20820;-84
2023/09/04 03:12:27;;;;;;;9.63;7.03;;;13.50;99.90;;;;;;5006377;28;20464;-83
2023/09/04 03:14:57;;;;;;;12.07;7.53;;;13.40;99.90;;;;;;4999748;28;20841;-80
2023/09/04 03:17:24;;;;;;;11.23;7.20;;;13.40;99.90;;;;;;5006292;28;20524;-82
2023/09/04 03:19:54;;;;;;;12.50;8.40;;;13.40;99.90;;;;;;5006689;28;20456;-82
2023/09/04 03:22:23;;;;;;;11.83;8.37;;;13.40;99.90;;;;;;5003541;28;20434;-81
2023/09/04 03:24:50;;;;;;;12.73;8.00;;;13.40;99.90;;;;;;5011619;28;20433;-79
2023/09/04 03:27:16;;;;;;;9.97;7.60;;;13.30;99.90;;;;;;5006457;28;20551;-82
2023/09/04 03:29:42;;;;;;;11.37;7.43;;;13.30;99.90;;;;;;5008368;28;20445;-78
2023/09/04 03:32:07;;;;;;;14.43;8.20;;;13.40;99.90;;;;;;5024459;28;20429;-77
2023/09/04 03:34:33;;;;;;;10.70;7.67;;;13.30;99.90;;;;;;5024193;28;21026;-76
2023/09/04 03:36:58;;;;;;;12.50;8.40;;;13.20;99.90;;;;;;5015880;28;20217;-83
2023/09/04 03:39:24;;;;;;;11.33;7.47;;;13.20;99.90;;;;;;5024432;28;20230;-79
2023/09/04 03:41:51;;;;;;;10.00;7.57;;;13.20;99.90;;;;;;5017113;28;20197;-80
2023/09/04 03:44:17;;;;;;;13.23;8.30;;;13.20;99.90;;;;;;5015002;28;20234;-80
2023/09/04 03:46:43;;;;;;;14.43;7.93;;;13.20;99.90;;;;;;5004212;28;20462;-80
2023/09/04 03:49:08;;;;;;;12.17;9.20;;;13.10;99.90;;;;;;5004253;28;20554;-81
2023/09/04 03:51:34;;;;;;;12.60;8.43;;;13.10;99.90;;;;;;5003341;28;20179;-78
2023/09/04 03:54:02;;;;;;;12.23;8.33;;;13.10;99.90;;;;;;5002581;28;20213;-84
2023/09/04 03:56:29;;;;;;;10.87;7.63;;;13.00;99.90;;;;;;5005760;28;20236;-81
2023/09/04 03:58:55;;;;;;;14.20;9.53;;;13.00;99.90;;;;;;5005643;28;20476;-80
2023/09/04 04:01:22;;;;;;;12.80;8.60;;;13.00;99.90;;;;;;5000209;28;20485;-83
2023/09/04 04:03:48;;;;;;;18.70;8.07;;;13.00;99.90;;;;;;5005270;28;20450;-80
2023/09/04 04:06:14;;;;;;;14.03;9.00;;;12.90;99.90;;;;;;5005861;28;20940;-79
2023/09/04 04:08:40;;;;;;;16.50;9.97;;;12.90;99.90;;;;;;5004152;28;20472;-83
2023/09/04 04:11:06;;;;;;;14.53;9.90;;;13.00;99.90;;;;;;5008520;28;20248;-84
2023/09/04 04:13:32;;;;;;;13.90;8.90;;;13.00;99.90;;;;;;5002026;28;20462;-82
2023/09/04 04:15:59;;;;;;;13.67;7.97;;;13.00;99.90;;;;;;5000692;28;20441;-82
2023/09/04 04:18:28;;;;;;;16.52;8.55;;;13.00;99.90;;;;;;5002775;28;20241;-80
2023/09/04 04:20:54;;;;;;;13.17;9.60;;;12.90;99.90;;;;;;5005814;28;20226;-83
2023/09/04 04:23:19;;;;;;;13.77;9.90;;;12.90;99.90;;;;;;5010120;28;20442;-82
2023/09/04 04:25:45;;;;;;;14.23;8.77;;;12.90;99.90;;;;;;5000107;28;20556;-79
2023/09/04 04:28:10;;;;;;;14.60;9.07;;;12.90;99.90;;;;;;4996004;28;20190;-83
2023/09/04 04:30:36;;;;;;;15.07;9.63;;;12.80;99.90;;;;;;4991946;28;20269;-79
2023/09/04 04:33:02;;;;;;;13.60;9.20;;;12.80;99.90;;;;;;4998584;28;20202;-75
2023/09/04 04:35:27;;;;;;;10.90;9.10;;;12.80;99.90;;;;;;5012989;28;20190;-85
2023/09/04 04:37:53;;;;;;;16.90;10.20;;;12.80;99.90;;;;;;5006670;28;20210;-79
2023/09/04 04:40:20;;;;;;;12.67;9.13;;;12.80;99.90;;;;;;5005546;28;20277;-81
2023/09/04 04:42:46;;;;;;;15.10;9.33;;;12.80;99.90;;;;;;5007415;28;20298;-80
2023/09/04 04:45:13;;;;;;;16.57;9.97;;;12.90;99.90;;;;;;5008676;28;20473;-83
2023/09/04 04:47:38;;;;;;;12.63;8.73;;;12.90;99.90;;;;;;5000414;28;20191;-82
2023/09/04 04:50:04;;;;;;;16.50;9.73;;;12.90;99.90;;;;;;5001106;28;20187;-83
2023/09/04 04:52:30;;;;;;;20.43;9.73;;;12.90;99.90;;;;;;5000896;28;20671;-81
2023/09/04 04:54:55;;;;;;;19.77;9.93;;;13.30;99.90;;;;;;5001194;28;20465;-82
2023/09/04 04:57:21;;;;;;;19.57;11.90;;;13.00;99.90;;;;;;5003788;28;20807;-81
2023/09/04 04:59:48;;;;;;;19.90;12.37;;;13.10;99.90;;;;;;4999203;28;20289;-81
2023/09/04 05:02:16;;;;;;;13.97;9.97;;;13.20;99.90;;;;;;4997953;28;20185;-81
2023/09/04 05:04:45;;;;;;;17.47;9.03;;;13.30;99.90;;;;;;5000503;28;20458;-81
2023/09/04 05:07:11;;;;;;;18.03;9.60;;;13.60;99.90;;;;;;5000126;28;21249;-81
2023/09/04 05:09:37;;;;;;;15.10;9.27;;;13.80;99.90;;;;;;5009973;28;20449;-75
2023/09/04 05:12:03;;;;;;;18.83;10.37;;;13.90;99.90;;;;;;5023656;28;20172;-84
2023/09/04 05:14:29;;;;;;;15.63;9.50;;;14.60;99.90;;;;;;5004942;28;20493;-78
2023/09/04 05:16:55;;;;;;;9.23;7.53;;;15.70;99.90;;;;;;5004781;28;20453;-82
2023/09/04 05:19:21;;;;;;;12.37;7.20;;;15.80;99.90;;;;;;5002971;28;20202;-81
2023/09/04 05:21:47;;;;;;;9.83;6.10;;;15.90;99.90;;;;;;5006295;28;20437;-81
2023/09/04 05:24:12;;;;;;;7.13;5.60;;;16.40;99.90;;;;;;5002256;28;20207;-81
2023/09/04 05:26:38;;;;;;;14.83;6.10;;;17.20;99.90;;;;;;5000394;28;21467;-85
2023/09/04 05:29:04;;;;;;;8.23;5.60;;;17.90;99.90;;;;;;5006124;28;20181;-82
2023/09/04 05:31:29;;;;;;;5.80;5.00;;;18.60;99.90;;;;;;5003760;28;20202;-81
2023/09/04 05:33:55;;;;;;;7.17;5.90;;;18.80;99.90;;;;;;5008462;28;20621;-81
2023/09/04 05:36:20;;;;;;;5.60;4.70;;;19.90;99.90;;;;;;5002767;28;20179;-81
2023/09/04 05:38:46;;;;;;;5.70;4.70;;;21.50;99.90;;;;;;5004131;28;20218;-80
2023/09/04 05:41:12;;;;;;;7.80;4.83;;;23.70;99.90;;;;;;5011688;28;20647;-79
2023/09/04 05:43:38;;;;;;;5.07;4.27;;;25.40;99.90;;;;;;5007368;28;20507;-80
2023/09/04 05:46:03;;;;;;;4.53;4.13;;;26.90;99.90;;;;;;5008454;28;20231;-81
2023/09/04 05:48:31;;;;;;;6.33;4.80;;;;;;;;;;5007914;28;20217;-82
2023/09/04 05:51:01;;;;;;;15.90;4.50;;;29.10;99.90;;;;;;5009108;28;20175;-87
2023/09/04 05:53:26;;;;;;;8.47;4.70;;;30.70;99.90;;;;;;5012748;28;20446;-81
2023/09/04 05:56:06;;;;;;;5.47;4.97;;;31.90;99.90;;;;;;5003024;28;20431;-84
2023/09/04 05:58:33;;;;;;;6.57;5.90;;;33.10;94.20;;;;;;5006303;28;20719;-80
2023/09/04 06:00:59;;;;;;;6.10;5.50;;;34.00;91.30;;;;;;4994430;28;20427;-82
2023/09/04 06:03:26;;;;;;;5.27;4.77;;;34.80;80.30;;;;;;5002499;28;20470;-83
2023/09/04 06:05:52;;;;;;;6.10;5.50;;;;;;;;;;4999795;28;20428;-82
2023/09/04 06:08:17;;;;;;;8.63;5.30;;;34.60;75.00;;;;;;5007776;28;20431;-81
2023/09/04 06:10:43;;;;;;;6.63;5.37;;;34.60;71.40;;;;;;5002404;28;20504;-82
2023/09/04 06:13:09;;;;;;;6.40;5.80;;;34.30;71.40;;;;;;5003180;28;20799;-83
2023/09/04 06:15:34;;;;;;;6.30;5.70;;;;;;;;;;4994308;28;20239;-86
2023/09/04 06:18:00;;;;;;;6.70;6.00;;;34.60;70.50;;;;;;4999643;28;20205;-85
2023/09/04 06:20:25;;;;;;;6.00;5.43;;;35.30;68.50;;;;;;4999331;28;21013;-77
2023/09/04 06:22:51;;;;;;;6.13;5.63;;;35.50;66.40;;;;;;4999283;28;20514;-81
2023/09/04 06:25:17;;;;;;;6.73;6.03;;;36.40;63.60;;;;;;4999533;28;20656;-83
2023/09/04 06:27:43;;;;;;;5.97;5.57;;;37.20;61.40;;;;;;5006003;28;20184;-85
2023/09/04 06:30:09;;;;;;;7.20;6.60;;;37.90;58.00;;;;;;4996774;28;20443;-82
2023/09/04 06:32:34;;;;;;;8.47;7.37;;;38.50;56.50;;;;;;5017514;28;20214;-82
2023/09/04 06:35:00;;;;;;;8.50;7.70;;;;;;;;;;5009058;28;20446;-82
2023/09/04 06:37:26;;;;;;;9.90;9.00;;;39.10;53.90;;;;;;5003027;28;20700;-81
2023/09/04 06:39:51;;;;;;;9.10;8.30;;;39.40;51.40;;;;;;5000669;28;20456;-82
2023/09/04 06:42:17;;;;;;;9.87;9.17;;;39.70;50.90;;;;;;4997537;28;20658;-84
2023/09/04 06:44:43;;;;;;;11.17;10.47;;;39.40;49.80;;;;;;4994208;28;20170;-82
2023/09/04 06:47:09;;;;;;;10.07;9.37;;;39.20;50.50;;;;;;4998164;28;20721;-84
2023/09/04 06:49:34;;;;;;;11.23;10.37;;;39.50;49.50;;;;;;5001666;28;20528;-81
2023/09/04 06:52:00;;;;;;;9.83;9.13;;;39.70;49.10;;;;;;5007164;28;20616;-77
2023/09/04 06:54:26;;;;;;;11.50;10.60;;;40.20;48.60;;;;;;5018796;28;20211;-80
2023/09/04 06:56:51;;;;;;;11.10;10.43;;;40.50;47.30;;;;;;5014368;28;20673;-82
2023/09/04 06:59:17;;;;;;;11.00;10.30;;;40.60;47.00;;;;;;5010059;28;20226;-82
2023/09/04 07:01:42;;;;;;;10.63;10.03;;;40.60;45.60;;;;;;5008176;28;20182;-81
2023/09/04 07:04:08;;;;;;;10.97;10.30;;;39.50;46.60;;;;;;5011242;28;20230;-82
2023/09/04 07:06:33;;;;;;;11.23;10.50;;;38.60;47.20;;;;;;5005810;28;20180;-82
2023/09/04 07:08:59;;;;;;;11.47;10.77;;;37.60;47.60;;;;;;5008413;28;20173;-85
2023/09/04 07:11:24;;;;;;;10.47;9.67;;;36.50;48.60;;;;;;5011080;28;20207;-78
2023/09/04 07:13:52;;;;;;;10.13;9.47;;;35.20;50.70;;;;;;5004964;28;20716;-81
2023/09/04 07:16:17;;;;;;;10.23;8.03;;;33.80;53.60;;;;;;5008161;28;20238;-82
2023/09/04 07:18:43;;;;;;;7.47;6.97;;;32.90;55.80;;;;;;5004575;28;20524;-78
2023/09/04 07:21:08;;;;;;;6.80;6.10;;;32.10;57.60;;;;;;5002910;28;20765;-83
2023/09/04 07:23:34;;;;;;;10.00;6.13;;;32.10;59.70;;;;;;5005509;28;20213;-83
2023/09/04 07:25:59;;;;;;;6.67;5.77;;;32.40;59.60;;;;;;5000896;28;20220;-83
2023/09/04 07:28:25;;;;;;;7.10;6.50;;;32.70;58.60;;;;;;5002310;28;20197;-81
2023/09/04 07:31:07;;;;;;;7.07;6.37;;;32.40;58.40;;;;;;5001402;28;20213;-84
2023/09/04 07:33:33;;;;;;;6.40;5.80;;;32.60;59.20;;;;;;5002161;28;21202;-79
2023/09/04 07:35:59;;;;;;;6.97;6.37;;;32.00;59.30;;;;;;5005055;28;20467;-76
2023/09/04 07:38:26;;;;;;;8.40;5.70;;;31.30;61.30;;;;;;5005533;28;20275;-81
2023/09/04 07:41:04;;;;;;;5.93;5.33;;;31.60;63.20;;;;;;5002006;28;20680;-81
2023/09/04 07:43:33;;;;;;;10.03;6.03;;;32.30;61.60;;;;;;5003950;28;20540;-81
2023/09/04 07:46:00;;;;;;;7.27;5.80;;;32.90;62.30;;;;;;5009645;28;20431;-83
2023/09/04 07:48:25;;;;;;;8.50;6.03;;;33.20;60.30;;;;;;5005492;28;21000;-82
2023/09/04 07:50:54;;;;;;;5.83;5.33;;;32.40;59.10;;;;;;5004050;28;20441;-79
2023/09/04 07:53:20;;;;;;;5.53;5.00;;;32.40;59.90;;;;;;5001418;28;20202;-82
2023/09/04 07:55:47;;;;;;;7.20;5.73;;;32.60;60.70;;;;;;5005111;28;20446;-81
2023/09/04 07:58:13;;;;;;;7.10;5.57;;;32.00;60.30;;;;;;5007740;28;20430;-81
2023/09/04 08:00:46;;;;;;;4.70;4.30;;;31.70;61.70;;;;;;5003153;28;20438;-81
2023/09/04 08:03:12;;;;;;;4.97;4.53;;;30.80;64.50;;;;;;5011933;28;20200;-77
2023/09/04 08:05:39;;;;;;;4.73;4.23;;;30.90;66.20;;;;;;5013182;28;20527;-81
2023/09/04 08:08:09;;;;;;;4.77;4.37;;;30.70;65.60;;;;;;5012704;28;20429;-81
2023/09/04 08:10:40;;;;;;;11.60;5.13;;;30.90;69.40;;;;;;5004112;28;20469;-80
2023/09/04 08:13:10;;;;;;;6.57;5.43;;;31.10;66.60;;;;;;5006762;28;20464;-82
2023/09/04 08:15:36;;;;;;;5.20;4.40;;;31.30;66.20;;;;;;5005775;28;20435;-80
2023/09/04 08:18:01;;;;;;;8.73;4.37;;;30.20;66.70;;;;;;5005614;28;20446;-78
2023/09/04 08:20:27;;;;;;;5.20;4.30;;;29.60;71.50;;;;;;5003667;28;20245;-81
2023/09/04 08:22:52;;;;;;;4.97;4.50;;;29.90;70.80;;;;;;5005314;28;20200;-79
2023/09/04 08:25:18;;;;;;;5.33;4.13;;;30.50;68.70;;;;;;5004120;28;20622;-79
2023/09/04 08:27:44;;;;;;;6.20;5.30;;;29.80;70.30;;;;;;4999050;28;20183;-79
2023/09/04 08:30:10;;;;;;;6.80;5.07;;;29.30;71.30;;;;;;4998519;28;20191;-81
2023/09/04 08:32:35;;;;;;;4.77;4.17;;;28.50;73.60;;;;;;5001793;28;20210;-77
2023/09/04 08:35:01;;;;;;;5.20;4.63;;;28.60;79.10;;;;;;5003809;28;20433;-86
2023/09/04 08:37:26;;;;;;;5.00;4.40;;;28.70;76.30;;;;;;5008520;28;20281;-82
2023/09/04 08:39:52;;;;;;;4.30;3.90;;;28.50;78.80;;;;;;5005573;28;20320;-85
2023/09/04 08:42:17;;;;;;;4.70;4.03;;;28.20;78.20;;;;;;5008927;28;20722;-79
2023/09/04 08:44:44;;;;;;;5.57;4.43;;;28.30;80.30;;;;;;5003652;28;20182;-84
2023/09/04 08:47:12;;;;;;;8.47;5.07;;;28.00;80.50;;;;;;5003953;28;20205;-80
2023/09/04 08:49:38;;;;;;;4.67;4.17;;;28.20;81.30;;;;;;4998220;28;21112;-80
2023/09/04 08:52:05;;;;;;;6.70;4.93;;;28.40;80.70;;;;;;4999433;28;20468;-84
2023/09/04 08:54:33;;;;;;;5.30;3.63;;;28.50;81.40;;;;;;4998182;28;20211;-82
2023/09/04 08:56:59;;;;;;;4.57;4.13;;;28.90;82.80;;;;;;5002759;28;20430;-81
2023/09/04 08:59:25;;;;;;;4.90;4.40;;;29.60;78.20;;;;;;5009616;28;20745;-81
2023/09/04 09:01:52;;;;;;;4.97;4.20;;;30.00;75.40;;;;;;5002241;28;20449;-83
2023/09/04 09:04:20;;;;;;;5.30;4.20;;;30.30;75.30;;;;;;4999709;28;20629;-81
2023/09/04 09:06:47;;;;;;;3.90;3.60;;;30.00;74.40;;;;;;5002155;28;20416;-80
2023/09/04 09:09:18;;;;;;;4.90;3.90;;;30.60;74.50;;;;;;5000760;28;20808;-82
2023/09/04 09:11:43;;;;;;;4.47;4.13;;;31.00;70.20;;;;;;4997585;28;20520;-81
2023/09/04 09:14:12;;;;;;;5.33;4.83;;;31.00;70.20;;;;;;5006145;28;20520;-80
2023/09/04 09:16:37;;;;;;;6.00;4.30;;;30.80;68.90;;;;;;5012745;28;20190;-79
2023/09/04 09:19:03;;;;;;;4.63;4.23;;;29.90;68.00;;;;;;5008677;28;20513;-81
2023/09/04 09:21:30;;;;;;;4.70;4.20;;;29.20;71.00;;;;;;4997016;28;20186;-80
2023/09/04 09:24:05;;;;;;;6.00;4.80;;;28.60;70.70;;;;;;5005004;28;20263;-83
2023/09/04 09:26:31;;;;;;;4.87;3.90;;;28.60;75.00;;;;;;5006009;28;20491;-84
2023/09/04 09:28:56;;;;;;;5.90;5.07;;;28.40;70.00;;;;;;4994913;28;20997;-79
2023/09/04 09:31:22;;;;;;;5.53;4.47;;;28.40;71.40;;;;;;5003033;28;20449;-84
2023/09/04 09:33:48;;;;;;;5.50;4.30;;;28.40;71.90;;;;;;5002131;28;20301;-83
2023/09/04 09:36:14;;;;;;;4.20;3.80;;;28.40;73.40;;;;;;5003167;28;20257;-81
2023/09/04 09:38:46;;;;;;;4.00;3.70;;;28.70;72.00;;;;;;4997258;28;20478;-80
2023/09/04 09:41:15;;;;;;;5.40;4.30;;;29.10;72.10;;;;;;5002924;28;20187;-78
2023/09/04 09:43:41;;;;;;;5.30;3.80;;;29.10;73.10;;;;;;4999714;28;20459;-82
2023/09/04 09:46:08;;;;;;;5.67;4.40;;;29.20;70.70;;;;;;5002006;28;20511;-79
2023/09/04 09:48:37;;;;;;;5.10;4.43;;;29.20;72.50;;;;;;5006305;28;20854;-78
2023/09/04 09:51:06;;;;;;;4.50;4.10;;;29.20;74.30;;;;;;4997311;28;20807;-82
2023/09/04 09:53:52;;;;;;;5.13;4.60;;;29.20;72.40;;;;;;5000125;28;20557;-81
2023/09/04 09:56:18;;;;;;;4.43;4.00;;;30.70;69.50;;;;;;5005120;28;20444;-83
2023/09/04 09:58:46;;;;;;;6.03;4.80;;;30.70;70.10;;;;;;5010949;28;20459;-80
2023/09/04 10:01:16;;;;;;;5.23;4.77;;;31.00;69.30;;;;;;5006941;28;20434;-80
2023/09/04 10:03:47;;;;;;;5.20;4.13;;;30.60;66.90;;;;;;5003543;28;20907;-81
2023/09/04 10:06:29;;;;;;;4.30;3.90;;;29.70;65.00;;;;;;5006481;28;20442;-78
2023/09/04 10:08:58;;;;;;;4.63;4.23;;;29.00;69.00;;;;;;5003045;28;20438;-80
2023/09/04 10:11:24;;;;;;;4.87;4.40;;;28.70;70.00;;;;;;5000403;28;20450;-83
2023/09/04 10:14:14;;;;;;;6.50;4.23;;;28.70;72.00;;;;;;4994749;28;21162;-81
2023/09/04 10:16:53;;;;;;;4.70;4.23;;;27.50;72.00;;;;;;5003243;28;20500;-83
2023/09/04 10:19:22;;;;;;;5.80;4.23;;;26.50;79.80;;;;;;5007258;28;20460;-83
2023/09/04 10:21:54;;;;;;;6.13;4.03;;;25.80;79.40;;;;;;5001178;28;20428;-82
2023/09/04 10:24:27;;;;;;;4.30;3.87;;;25.40;83.90;;;;;;5000830;28;20454;-82
2023/09/04 10:27:08;;;;;;;4.47;4.07;;;25.20;84.00;;;;;;5024943;28;20460;-78
2023/09/04 10:29:45;;;;;;;4.87;4.00;;;25.10;85.00;;;;;;5012852;28;20777;-81
2023/09/04 10:32:12;;;;;;;5.50;3.93;;;25.20;89.80;;;;;;5012348;28;20434;-82
2023/09/04 10:34:40;;;;;;;4.23;3.60;;;25.20;88.40;;;;;;5009530;28;20483;-81
2023/09/04 10:37:12;;;;;;;4.73;4.23;;;25.20;90.00;;;;;;5009296;28;20449;-76
2023/09/04 10:39:39;;;;;;;7.37;4.53;;;25.10;91.10;;;;;;5004323;28;20570;-78
2023/09/04 10:42:06;;;;;;;7.00;4.57;;;25.20;90.90;;;;;;5006198;28;20500;-78
2023/09/04 10:44:48;;;;;;;3.40;3.00;;;25.30;87.30;;;;;;5002314;28;20461;-78
2023/09/04 10:47:14;;;;;;;4.70;3.70;;;25.30;86.90;;;;;;5001945;28;20434;-84
2023/09/04 10:49:42;;;;;;;3.90;3.50;;;25.10;87.00;;;;;;5014760;28;20451;-81
2023/09/04 10:52:08;;;;;;;4.23;3.70;;;25.10;86.30;;;;;;5010078;28;20439;-81
2023/09/04 10:54:34;;;;;;;3.70;3.40;;;25.10;85.70;;;;;;5003052;28;20454;-81
2023/09/04 10:57:02;;;;;;;6.00;4.27;;;25.30;86.00;;;;;;5002913;28;20490;-81
2023/09/04 10:59:28;;;;;;;4.30;3.73;;;25.30;86.40;;;;;;5004007;28;20204;-80
2023/09/04 11:01:54;;;;;;;5.63;3.63;;;25.40;83.60;;;;;;5001819;28;20823;-82
2023/09/04 11:04:46;;;;;;;3.87;3.50;;;25.50;84.00;;;;;;5004445;28;20455;-84
2023/09/04 11:07:20;;;;;;;4.80;3.53;;;25.60;82.60;;;;;;5008124;28;20435;-85
2023/09/04 11:10:06;;;;;;;3.50;3.20;;;25.50;80.10;;;;;;5009086;28;20470;-83
2023/09/04 11:12:35;;;;;;;3.70;3.17;;;25.80;80.10;;;;;;5000279;28;20457;-82
2023/09/04 11:15:01;;;;;;;3.60;3.30;;;25.90;82.50;;;;;;5005097;28;20451;-85
2023/09/04 11:17:28;;;;;;;4.13;3.30;;;26.00;80.20;;;;;;5001222;28;21451;-79
2023/09/04 11:19:54;;;;;;;3.60;3.30;;;26.10;77.00;;;;;;5005511;28;20827;-81
2023/09/04 11:22:21;;;;;;;3.53;3.10;;;26.30;76.70;;;;;;5002432;28;20455;-82
2023/09/04 11:24:47;;;;;;;3.80;3.50;;;26.20;76.30;;;;;;4999383;28;20507;-80
2023/09/04 11:27:13;;;;;;;3.57;3.10;;;26.40;76.30;;;;;;4997919;28;20899;-81
2023/09/04 11:29:38;;;;;;;3.63;3.33;;;26.40;79.50;;;;;;4994312;28;20491;-83
2023/09/04 11:32:07;;;;;;;4.57;3.43;;;26.40;73.70;;;;;;5002234;28;20204;-83
2023/09/04 11:34:32;;;;;;;3.60;3.30;;;26.40;74.80;;;;;;4994965;28;20234;-84
2023/09/04 11:36:58;;;;;;;4.77;3.23;;;26.50;72.20;;;;;;5011662;28;20432;-81
2023/09/04 11:39:23;;;;;;;5.43;3.40;;;26.40;69.90;;;;;;5012043;28;20217;-78
2023/09/04 11:41:50;;;;;;;5.40;3.77;;;26.40;69.00;;;;;;5009470;28;20693;-79
2023/09/04 11:44:15;;;;;;;6.13;2.80;;;26.50;70.40;;;;;;5006379;28;20213;-78
2023/09/04 11:46:42;;;;;;;4.03;3.30;;;26.50;69.80;;;;;;5005143;28;20434;-83
2023/09/04 11:49:08;;;;;;;4.23;3.73;;;26.60;72.50;;;;;;5012122;28;20205;-79
2023/09/04 11:51:35;;;;;;;3.30;3.00;;;27.00;69.70;;;;;;5007782;28;20965;-81
2023/09/04 11:54:05;;;;;;;5.10;3.10;;;26.70;69.20;;;;;;5000930;28;20210;-81
2023/09/04 11:56:31;;;;;;;3.90;3.07;;;26.60;67.10;;;;;;5003182;28;21963;-82
2023/09/04 11:58:57;;;;;;;4.20;3.30;;;;;;;;;;5002268;28;20476;-82
2023/09/04 12:01:23;;;;;;;3.13;2.90;;;26.70;68.20;;;;;;5002680;28;20193;-83
2023/09/04 12:03:51;;;;;;;4.70;2.90;;;26.60;65.40;;;;;;4993739;28;20460;-82
2023/09/04 12:06:16;;;;;;;3.90;3.17;;;26.60;66.80;;;;;;5004079;28;20432;-79
2023/09/04 12:08:42;;;;;;;3.77;3.40;;;26.70;64.70;;;;;;5000937;28;21502;-84
2023/09/04 12:11:08;;;;;;;3.20;2.90;;;26.70;66.60;;;;;;5011136;28;20190;-82
2023/09/04 12:13:33;;;;;;;3.50;3.10;;;26.80;64.80;;;;;;5003346;28;20574;-85
2023/09/04 12:16:06;;;;;;;4.23;3.70;;;26.80;65.80;;;;;;4999890;28;20205;-78
2023/09/04 12:18:39;;;;;;;3.73;3.30;;;27.00;65.00;;;;;;5013016;28;20194;-82
2023/09/04 12:21:11;;;;;;;5.30;3.50;;;26.90;65.30;;;;;;5006022;28;20434;-85
2023/09/04 12:23:46;;;;;;;5.27;3.23;;;27.00;66.40;;;;;;5001641;28;20454;-79
2023/09/04 12:26:18;;;;;;;5.20;3.83;;;27.10;63.00;;;;;;4997562;28;21199;-81
2023/09/04 12:28:44;;;;;;;7.43;3.20;;;27.20;61.60;;;;;;5005440;28;20440;-82
2023/09/04 12:31:10;;;;;;;4.00;3.60;;;27.20;67.90;;;;;;4998142;28;20439;-82
2023/09/04 12:33:38;;;;;;;5.03;3.63;;;27.30;64.80;;;;;;4997318;28;20214;-82
2023/09/04 12:36:09;;;;;;;4.27;3.50;;;27.40;64.80;;;;;;4998200;28;20468;-81
2023/09/04 12:38:39;;;;;;;6.93;2.97;;;27.50;64.10;;;;;;5010630;28;20875;-78
2023/09/04 12:41:06;;;;;;;4.07;3.40;;;27.50;63.00;;;;;;5010575;28;20430;-81
2023/09/04 12:43:32;;;;;;;4.33;3.93;;;27.60;62.00;;;;;;5008032;28;20447;-80
2023/09/04 12:45:57;;;;;;;5.10;3.40;;;27.60;63.00;;;;;;5015350;28;20454;-77